Terminal Aerodrome Forecast
Issued by NWS Jackson, MS

Home | Current Version | Previous Version | Text Only | Print | Product List | Glossary On
Versions: 1 2 3 4 5 6 7 8 9 10 11 12 13 14 15 16 17
937
FTUS44 KJAN 282320
TAFJAN
TAF
KJAN 282320Z 2900/2924 20003KT P6SM FEW050
     FM290900 14003KT P6SM OVC025
     FM291200 15009KT P6SM OVC015
     FM291600 16012G18KT P6SM BKN050
     FM292200 14009KT P6SM SCT250=

USA.gov is the U.S. government's official web portal to all federal, state and local government web resources and services.